Time;durP1;ratioP1;P1;durP2;ratioP2;P2;SDS_P1;SDS_P2;PMS_P1;PMS_P2;Temp;Humidity;BMP_temperature;BMP_pressure;BME280_temperature;BME280_humidity;BME280_pressure;Samples;Min_cycle;Max_cycle;Signal;HPM_P1;HPM_P2
2023/04/23 00:00:24;;;;;;;;;;;12.70;96.70;;;;;;5074359;28;20443;-62
2023/04/23 00:02:52;;;;;;;;;;;12.60;98.60;;;;;;5074377;28;20035;-62
2023/04/23 00:05:18;;;;;;;;;;;12.50;99.90;;;;;;5074492;28;19990;-62
2023/04/23 00:07:44;;;;;;;;;;;12.50;99.60;;;;;;5074232;28;20009;-62
2023/04/23 00:10:09;;;;;;;;;;;12.50;98.90;;;;;;5074272;28;19985;-62
2023/04/23 00:12:35;;;;;;;;;;;12.50;97.10;;;;;;5074384;28;20041;-62
2023/04/23 00:15:01;;;;;;;;;;;12.30;99.90;;;;;;5074255;28;20481;-62
2023/04/23 00:17:27;;;;;;;;;;;12.10;99.90;;;;;;5074138;28;20436;-62
2023/04/23 00:19:53;;;;;;;;;;;11.90;99.90;;;;;;5073840;28;20085;-62
2023/04/23 00:22:19;;;;;;;;;;;11.90;99.90;;;;;;5074134;28;20435;-62
2023/04/23 00:24:45;;;;;;;;;;;11.90;99.90;;;;;;5074107;28;20473;-62
2023/04/23 00:27:10;;;;;;;;;;;11.70;99.90;;;;;;5073842;28;19985;-62
2023/04/23 00:29:36;;;;;;;;;;;11.60;99.90;;;;;;5074123;28;20030;-62
2023/04/23 00:32:02;;;;;;;;;;;11.50;99.90;;;;;;5073976;28;20097;-63
2023/04/23 00:34:27;;;;;;;;;;;11.40;99.90;;;;;;5073653;28;20354;-62
2023/04/23 00:36:53;;;;;;;;;;;11.50;99.90;;;;;;5074119;28;20005;-62
2023/04/23 00:39:19;;;;;;;;;;;11.40;99.90;;;;;;5073745;28;20032;-62
2023/04/23 00:41:44;;;;;;;;;;;11.40;99.90;;;;;;5073970;28;19992;-62
2023/04/23 00:44:11;;;;;;;;;;;11.50;99.90;;;;;;5073803;28;20454;-62
2023/04/23 00:46:37;;;;;;;;;;;11.60;99.90;;;;;;5073759;28;20486;-62
2023/04/23 00:49:03;;;;;;;;;;;11.70;99.90;;;;;;5073578;28;20009;-62
2023/04/23 00:51:28;;;;;;;;;;;11.80;99.90;;;;;;5073967;28;19989;-62
2023/04/23 00:53:54;;;;;;;;;;;11.80;99.90;;;;;;5073726;28;19991;-62
2023/04/23 00:56:23;;;;;;;;;;;11.80;99.90;;;;;;5073605;28;20036;-62
2023/04/23 00:58:50;;;;;;;;;;;11.80;99.90;;;;;;5073611;28;20031;-62
2023/04/23 01:01:19;;;;;;;;;;;11.80;99.90;;;;;;5073616;28;19992;-62
2023/04/23 01:03:45;;;;;;;;;;;11.70;99.90;;;;;;5072888;28;20029;-62
2023/04/23 01:06:11;;;;;;;;;;;11.60;99.90;;;;;;5073469;28;19985;-62
2023/04/23 01:08:37;;;;;;;;;;;11.60;99.90;;;;;;5073554;28;20352;-62
2023/04/23 01:11:03;;;;;;;;;;;11.70;99.90;;;;;;5073626;28;20444;-62
2023/04/23 01:13:29;;;;;;;;;;;11.70;99.90;;;;;;5073411;28;19986;-63
2023/04/23 01:15:55;;;;;;;;;;;11.60;99.90;;;;;;5073507;28;19992;-62
2023/04/23 01:18:21;;;;;;;;;;;11.60;99.90;;;;;;5073565;28;19993;-62
2023/04/23 01:20:48;;;;;;;;;;;11.40;99.90;;;;;;5073692;28;20431;-62
2023/04/23 01:23:14;;;;;;;;;;;11.30;99.90;;;;;;5073384;28;20000;-62
2023/04/23 01:25:40;;;;;;;;;;;11.30;99.90;;;;;;5073701;28;19992;-62
2023/04/23 01:28:05;;;;;;;;;;;11.30;99.90;;;;;;5073245;28;20010;-62
2023/04/23 01:30:32;;;;;;;;;;;11.30;99.90;;;;;;5073428;28;20466;-62
2023/04/23 01:32:58;;;;;;;;;;;11.30;99.90;;;;;;5073194;28;19986;-62
2023/04/23 01:35:24;;;;;;;;;;;11.10;99.90;;;;;;5073240;28;20005;-62
2023/04/23 01:37:52;;;;;;;;;;;11.10;99.90;;;;;;5073257;28;20028;-62
2023/04/23 01:40:19;;;;;;;;;;;11.10;99.90;;;;;;5073280;28;20554;-62
2023/04/23 01:42:45;;;;;;;;;;;11.20;99.90;;;;;;5073500;28;19989;-62
2023/04/23 01:45:10;;;;;;;;;;;11.20;99.90;;;;;;5073098;28;20380;-62
2023/04/23 01:47:36;;;;;;;;;;;11.20;99.90;;;;;;5072984;28;20059;-62
2023/04/23 01:50:04;;;;;;;;;;;11.10;99.90;;;;;;5073210;28;19989;-62
2023/04/23 01:52:29;;;;;;;;;;;11.00;99.90;;;;;;5073083;28;19986;-62
2023/04/23 01:54:55;;;;;;;;;;;11.00;99.90;;;;;;5073255;28;20558;-62
2023/04/23 01:57:23;;;;;;;;;;;11.00;99.90;;;;;;5073184;28;20458;-62
2023/04/23 01:59:48;;;;;;;;;;;10.90;99.90;;;;;;5073034;28;20440;-62
2023/04/23 02:02:15;;;;;;;;;;;10.80;99.90;;;;;;5073152;28;20095;-62
2023/04/23 02:04:42;;;;;;;;;;;10.60;99.90;;;;;;5073621;28;20029;-62
2023/04/23 02:07:08;;;;;;;;;;;10.50;99.90;;;;;;5072910;28;19992;-62
2023/04/23 02:09:34;;;;;;;;;;;10.50;99.90;;;;;;5073286;28;19989;-62
2023/04/23 02:12:00;;;;;;;;;;;10.60;99.90;;;;;;5072930;28;19986;-62
2023/04/23 02:14:26;;;;;;;;;;;10.70;99.90;;;;;;5072940;28;19985;-62
2023/04/23 02:16:51;;;;;;;;;;;10.70;99.90;;;;;;5075650;28;20409;-62
2023/04/23 02:19:17;;;;;;;;;;;10.70;99.90;;;;;;5076431;28;19985;-62
2023/04/23 02:21:42;;;;;;;;;;;10.70;99.90;;;;;;5076608;28;20439;-62
2023/04/23 02:24:08;;;;;;;;;;;10.70;99.90;;;;;;5076359;28;20558;-62
2023/04/23 02:26:34;;;;;;;;;;;10.70;99.90;;;;;;5076221;28;19989;-62
2023/04/23 02:28:59;;;;;;;;;;;10.70;99.90;;;;;;5076211;28;20059;-62
2023/04/23 02:31:25;;;;;;;;;;;10.70;99.90;;;;;;5075971;28;20020;-62
2023/04/23 02:33:50;;;;;;;;;;;10.60;99.90;;;;;;5076161;28;19986;-62
2023/04/23 02:36:16;;;;;;;;;;;10.50;99.90;;;;;;5076514;28;20009;-62
2023/04/23 02:38:43;;;;;;;;;;;10.60;99.90;;;;;;5075864;28;20564;-62
2023/04/23 02:41:09;;;;;;;;;;;10.50;99.90;;;;;;5076159;28;20021;-62
2023/04/23 02:43:35;;;;;;;;;;;10.50;99.90;;;;;;5076001;28;19992;-62
2023/04/23 02:46:06;;;;;;;;;;;10.30;99.90;;;;;;5075757;28;19985;-62
2023/04/23 02:48:36;;;;;;;;;;;10.20;99.90;;;;;;5076108;28;20017;-62
2023/04/23 02:51:02;;;;;;;;;;;10.10;99.90;;;;;;5076146;28;20399;-62
2023/04/23 02:53:27;;;;;;;;;;;10.00;99.90;;;;;;5075740;28;20077;-62
2023/04/23 02:55:53;;;;;;;;;;;10.00;99.90;;;;;;5075748;28;20076;-62
2023/04/23 02:58:19;;;;;;;;;;;10.10;99.90;;;;;;5075799;28;19993;-62
2023/04/23 03:00:44;;;;;;;;;;;10.20;99.90;;;;;;5075609;28;20466;-62
2023/04/23 03:03:10;;;;;;;;;;;10.10;99.90;;;;;;5075623;28;20450;-63
2023/04/23 03:05:35;;;;;;;;;;;10.10;99.90;;;;;;5075669;28;19985;-63
2023/04/23 03:08:01;;;;;;;;;;;10.00;99.90;;;;;;5075383;28;20092;-63
2023/04/23 03:10:26;;;;;;;;;;;10.00;99.90;;;;;;5075609;28;20309;-62
2023/04/23 03:12:52;;;;;;;;;;;9.80;99.90;;;;;;5075226;28;19994;-62
2023/04/23 03:15:17;;;;;;;;;;;9.80;99.90;;;;;;5075469;28;20031;-62
2023/04/23 03:17:43;;;;;;;;;;;9.70;99.90;;;;;;5075294;28;19986;-62
2023/04/23 03:20:10;;;;;;;;;;;9.80;99.90;;;;;;5075408;28;20467;-62
2023/04/23 03:22:36;;;;;;;;;;;9.80;99.90;;;;;;5075498;28;19990;-62
2023/04/23 03:25:02;;;;;;;;;;;9.80;99.90;;;;;;5075423;28;20005;-62
2023/04/23 03:27:28;;;;;;;;;;;9.80;99.90;;;;;;5074565;28;20009;-62
2023/04/23 03:29:53;;;;;;;;;;;9.80;99.90;;;;;;5075401;28;20066;-62
2023/04/23 03:32:19;;;;;;;;;;;9.60;99.90;;;;;;5075011;28;20421;-62
2023/04/23 03:34:44;;;;;;;;;;;9.40;99.90;;;;;;5075002;28;20063;-62
2023/04/23 03:37:10;;;;;;;;;;;9.30;99.90;;;;;;5074923;28;19989;-62
2023/04/23 03:39:36;;;;;;;;;;;9.40;99.90;;;;;;5074639;28;20108;-62
2023/04/23 03:42:01;;;;;;;;;;;9.50;99.90;;;;;;5074727;28;20362;-62
2023/04/23 03:44:27;;;;;;;;;;;9.60;99.90;;;;;;5074793;28;20031;-62
2023/04/23 03:46:52;;;;;;;;;;;9.60;99.90;;;;;;5074770;28;19986;-62
2023/04/23 03:49:18;;;;;;;;;;;9.50;99.90;;;;;;5074540;28;20104;-62
2023/04/23 03:51:43;;;;;;;;;;;9.60;99.90;;;;;;5074695;28;19985;-62
2023/04/23 03:54:09;;;;;;;;;;;9.60;99.90;;;;;;5074641;28;19985;-62
2023/04/23 03:56:35;;;;;;;;;;;9.70;99.90;;;;;;5074336;28;19992;-62
2023/04/23 03:59:00;;;;;;;;;;;9.70;99.90;;;;;;5074756;28;20034;-62
2023/04/23 04:01:26;;;;;;;;;;;9.70;99.90;;;;;;5074613;28;19986;-62
2023/04/23 04:03:51;;;;;;;;;;;9.70;99.90;;;;;;5074340;28;19996;-62
2023/04/23 04:06:17;;;;;;;;;;;9.70;99.90;;;;;;5074364;28;20036;-62
2023/04/23 04:08:42;;;;;;;;;;;9.70;99.90;;;;;;5074342;28;20062;-62
2023/04/23 04:11:08;;;;;;;;;;;9.70;99.90;;;;;;5074176;28;19986;-62
2023/04/23 04:13:33;;;;;;;;;;;9.70;99.90;;;;;;5074209;28;19989;-62
2023/04/23 04:15:59;;;;;;;;;;;9.70;99.90;;;;;;5074239;28;20390;-62
2023/04/23 04:18:25;;;;;;;;;;;9.70;99.90;;;;;;5074240;28;20034;-62
2023/04/23 04:20:51;;;;;;;;;;;9.70;99.90;;;;;;5074080;28;19985;-62
2023/04/23 04:23:16;;;;;;;;;;;9.80;99.90;;;;;;5074152;28;19986;-62
2023/04/23 04:25:42;;;;;;;;;;;9.70;99.90;;;;;;5073916;28;19997;-62
2023/04/23 04:28:10;;;;;;;;;;;9.60;99.90;;;;;;5073825;28;20036;-62
2023/04/23 04:30:37;;;;;;;;;;;9.60;99.90;;;;;;5074272;28;20088;-62
2023/04/23 04:33:02;;;;;;;;;;;9.70;99.90;;;;;;5074038;28;19989;-62
2023/04/23 04:35:28;;;;;;;;;;;9.80;99.90;;;;;;5073861;28;20008;-62
2023/04/23 04:37:53;;;;;;;;;;;9.80;99.90;;;;;;5073146;28;20074;-62
2023/04/23 04:40:19;;;;;;;;;;;9.90;99.90;;;;;;5073698;28;19992;-62
2023/04/23 04:42:45;;;;;;;;;;;9.90;99.90;;;;;;5073788;28;20099;-62
2023/04/23 04:45:11;;;;;;;;;;;9.90;99.90;;;;;;5073746;28;19996;-62
2023/04/23 04:47:36;;;;;;;;;;;9.80;99.90;;;;;;5073704;28;20119;-62
2023/04/23 04:50:02;;;;;;;;;;;9.60;99.90;;;;;;5074078;28;19996;-62
2023/04/23 04:52:28;;;;;;;;;;;9.50;99.90;;;;;;5073689;28;20383;-62
2023/04/23 04:54:53;;;;;;;;;;;9.40;99.90;;;;;;5073635;28;19992;-62
2023/04/23 04:57:21;;;;;;;;;;;9.50;99.90;;;;;;5073679;28;20039;-62
2023/04/23 04:59:47;;;;;;;;;;;9.50;99.90;;;;;;5073583;28;19985;-62
2023/04/23 05:02:13;;;;;;;;;;;9.50;99.90;;;;;;5073930;28;20016;-62
2023/04/23 05:04:38;;;;;;;;;;;9.40;99.90;;;;;;5073735;28;19985;-62
2023/04/23 05:07:04;;;;;;;;;;;9.30;99.90;;;;;;5073617;28;20011;-62
2023/04/23 05:09:29;;;;;;;;;;;9.30;99.90;;;;;;5073380;28;20008;-62
2023/04/23 05:11:55;;;;;;;;;;;9.30;99.90;;;;;;5073856;28;19989;-62
2023/04/23 05:14:21;;;;;;;;;;;9.30;99.90;;;;;;5073496;28;19987;-62
2023/04/23 05:16:46;;;;;;;;;;;9.30;99.90;;;;;;5073540;28;19985;-62
2023/04/23 05:19:12;;;;;;;;;;;9.40;99.90;;;;;;5073614;28;19996;-62
2023/04/23 05:21:38;;;;;;;;;;;9.50;99.90;;;;;;5073720;28;19990;-62
2023/04/23 05:24:04;;;;;;;;;;;9.50;99.90;;;;;;5073181;28;19985;-62
2023/04/23 05:26:29;;;;;;;;;;;9.50;99.90;;;;;;5073572;28;20351;-62
2023/04/23 05:28:55;;;;;;;;;;;9.50;99.90;;;;;;5073263;28;20098;-62
2023/04/23 05:31:20;;;;;;;;;;;9.50;99.90;;;;;;5073332;28;19985;-62
2023/04/23 05:33:46;;;;;;;;;;;9.60;99.90;;;;;;5073341;28;20480;-62
2023/04/23 05:36:12;;;;;;;;;;;9.70;99.90;;;;;;5073321;28;20007;-62
2023/04/23 05:38:37;;;;;;;;;;;9.80;99.90;;;;;;5072981;28;20026;-62
2023/04/23 05:41:03;;;;;;;;;;;9.70;99.90;;;;;;5073394;28;20035;-62
2023/04/23 05:43:29;;;;;;;;;;;9.80;99.90;;;;;;5073345;28;20039;-62
2023/04/23 05:45:54;;;;;;;;;;;9.90;99.90;;;;;;5073403;28;19993;-62
2023/04/23 05:48:20;;;;;;;;;;;10.00;99.90;;;;;;5073168;28;20009;-62
2023/04/23 05:50:48;;;;;;;;;;;10.20;99.90;;;;;;5076106;28;20443;-62
2023/04/23 05:53:13;;;;;;;;;;;10.30;99.90;;;;;;5076732;28;19990;-62
2023/04/23 05:55:39;;;;;;;;;;;10.40;99.90;;;;;;5076822;28;20375;-62
2023/04/23 05:58:05;;;;;;;;;;;10.40;99.90;;;;;;5076849;28;19992;-62
2023/04/23 06:00:31;;;;;;;;;;;10.50;99.90;;;;;;5076877;28;20025;-62
2023/04/23 06:02:56;;;;;;;;;;;10.60;99.90;;;;;;5076657;28;20031;-62
2023/04/23 06:05:22;;;;;;;;;;;10.80;99.90;;;;;;5076686;28;19990;-62
2023/04/23 06:07:48;;;;;;;;;;;10.90;99.90;;;;;;5076699;28;20012;-62
2023/04/23 06:10:13;;;;;;;;;;;11.10;99.90;;;;;;5076546;28;20454;-62
2023/04/23 06:12:40;;;;;;;;;;;11.20;99.90;;;;;;5077239;28;19996;-62
2023/04/23 06:15:07;;;;;;;;;;;11.30;99.90;;;;;;5076550;28;19992;-62
2023/04/23 06:17:33;;;;;;;;;;;11.50;99.90;;;;;;5076445;28;19993;-62
2023/04/23 06:19:59;;;;;;;;;;;11.60;99.90;;;;;;5076496;28;20573;-62
2023/04/23 06:22:24;;;;;;;;;;;11.80;99.90;;;;;;5076622;28;19993;-62
2023/04/23 06:24:50;;;;;;;;;;;12.00;99.90;;;;;;5076570;28;19989;-62
2023/04/23 06:27:16;;;;;;;;;;;12.30;99.90;;;;;;5076214;28;19989;-62
2023/04/23 06:29:41;;;;;;;;;;;12.70;99.90;;;;;;5076402;28;20027;-62
2023/04/23 06:32:07;;;;;;;;;;;15.20;99.90;;;;;;5076057;28;19985;-62
2023/04/23 06:34:32;;;;;;;;;;;19.10;79.70;;;;;;5076040;28;19993;-62
2023/04/23 06:36:58;;;;;;;;;;;22.40;59.40;;;;;;5076206;28;20463;-62
2023/04/23 06:39:23;;;;;;;;;;;24.60;49.90;;;;;;5075872;28;20130;-62
2023/04/23 06:41:49;;;;;;;;;;;26.30;46.90;;;;;;5075995;28;19985;-62
2023/04/23 06:44:15;;;;;;;;;;;27.70;42.50;;;;;;5076071;28;20039;-63
2023/04/23 06:46:40;;;;;;;;;;;28.80;41.50;;;;;;5075950;28;19986;-62
2023/04/23 06:49:06;;;;;;;;;;;30.00;39.70;;;;;;5075783;28;20078;-62
2023/04/23 06:51:31;;;;;;;;;;;31.10;36.90;;;;;;5075691;28;19986;-62
2023/04/23 06:53:57;;;;;;;;;;;31.70;36.10;;;;;;5076071;28;20435;-62
2023/04/23 06:56:23;;;;;;;;;;;32.30;35.20;;;;;;5075767;28;19992;-62
2023/04/23 06:58:48;;;;;;;;;;;32.90;34.10;;;;;;5075791;28;20084;-62
2023/04/23 07:01:14;;;;;;;;;;;33.40;34.10;;;;;;5074796;28;19992;-63
2023/04/23 07:03:43;;;;;;;;;;;33.80;33.20;;;;;;5075667;28;19992;-62
2023/04/23 07:06:09;;;;;;;;;;;33.90;32.20;;;;;;5075386;28;20032;-63
2023/04/23 07:08:34;;;;;;;;;;;33.60;33.50;;;;;;5075556;28;20016;-62
2023/04/23 07:11:00;;;;;;;;;;;33.50;32.40;;;;;;5075839;28;20084;-62
2023/04/23 07:13:26;;;;;;;;;;;33.40;33.30;;;;;;5075417;28;19986;-63
2023/04/23 07:15:52;;;;;;;;;;;33.40;31.30;;;;;;5075395;28;20082;-62
2023/04/23 07:18:17;;;;;;;;;;;33.60;32.10;;;;;;5075415;28;19995;-63
2023/04/23 07:20:43;;;;;;;;;;;33.50;32.80;;;;;;5075035;28;19993;-63
2023/04/23 07:23:09;;;;;;;;;;;33.70;32.00;;;;;;5073976;28;20023;-63
2023/04/23 07:25:35;;;;;;;;;;;34.30;31.40;;;;;;5075324;28;19986;-63
2023/04/23 07:28:01;;;;;;;;;;;35.10;31.50;;;;;;5075015;28;20013;-63
2023/04/23 07:30:26;;;;;;;;;;;35.50;30.00;;;;;;5075250;28;20443;-63
2023/04/23 07:32:52;;;;;;;;;;;35.80;29.60;;;;;;5075161;28;19996;-63
2023/04/23 07:35:18;;;;;;;;;;;35.90;29.90;;;;;;5074786;28;20001;-63
2023/04/23 07:37:43;;;;;;;;;;;35.70;31.20;;;;;;5074745;28;20017;-63
2023/04/23 07:40:09;;;;;;;;;;;35.90;30.30;;;;;;5074953;28;20328;-63
2023/04/23 07:42:35;;;;;;;;;;;36.40;30.70;;;;;;5074840;28;20390;-63
2023/04/23 07:45:00;;;;;;;;;;;36.40;30.00;;;;;;5075046;28;19997;-62
2023/04/23 07:47:26;;;;;;;;;;;36.50;29.80;;;;;;5074680;28;20443;-63
2023/04/23 07:49:51;;;;;;;;;;;36.80;28.60;;;;;;5074582;28;19992;-63
2023/04/23 07:52:17;;;;;;;;;;;37.00;28.50;;;;;;5074650;28;19992;-63
2023/04/23 07:54:43;;;;;;;;;;;37.20;29.40;;;;;;5074631;28;20390;-63
2023/04/23 07:57:10;;;;;;;;;;;37.50;28.70;;;;;;5074882;28;19996;-63
2023/04/23 07:59:37;;;;;;;;;;;37.90;28.70;;;;;;5074454;28;20084;-63
2023/04/23 08:02:03;;;;;;;;;;;37.90;28.10;;;;;;5074624;28;20008;-63
2023/04/23 08:04:29;;;;;;;;;;;38.10;28.50;;;;;;5074232;28;20424;-63
2023/04/23 08:06:54;;;;;;;;;;;38.30;27.70;;;;;;5074238;28;20021;-63
2023/04/23 08:09:20;;;;;;;;;;;38.00;27.80;;;;;;5074270;28;20107;-63
2023/04/23 08:11:47;;;;;;;;;;;38.10;30.50;;;;;;5074529;28;19997;-63
2023/04/23 08:14:12;;;;;;;;;;;38.00;29.10;;;;;;5074207;28;20126;-63
2023/04/23 08:16:38;;;;;;;;;;;37.70;29.60;;;;;;5074125;28;20025;-63
2023/04/23 08:19:04;;;;;;;;;;;37.30;27.80;;;;;;5074206;28;19989;-63
2023/04/23 08:21:31;;;;;;;;;;;37.60;28.50;;;;;;5074155;28;20059;-61
2023/04/23 08:23:57;;;;;;;;;;;38.00;27.80;;;;;;5073998;28;20032;-62
2023/04/23 08:26:22;;;;;;;;;;;38.10;28.80;;;;;;5074136;28;19989;-61
2023/04/23 08:28:48;;;;;;;;;;;37.90;28.40;;;;;;5074265;28;20013;-61
2023/04/23 08:31:13;;;;;;;;;;;37.50;29.60;;;;;;5073889;28;20377;-61
2023/04/23 08:33:39;;;;;;;;;;;37.00;28.30;;;;;;5073819;28;19985;-62
2023/04/23 08:36:05;;;;;;;;;;;37.00;28.50;;;;;;5074002;28;20537;-62
2023/04/23 08:38:30;;;;;;;;;;;37.00;27.90;;;;;;5073613;28;20025;-62
2023/04/23 08:40:57;;;;;;;;;;;37.00;27.30;;;;;;5074035;28;20031;-62
2023/04/23 08:43:52;;;;;;;;;;;36.80;27.60;;;;;;5074086;28;19993;-61
2023/04/23 08:46:18;;;;;;;;;;;36.50;28.90;;;;;;5068846;28;20444;-61
2023/04/23 08:48:44;;;;;;;;;;;36.10;30.20;;;;;;5073787;28;20013;-62
2023/04/23 08:51:12;;;;;;;;;;;35.60;30.90;;;;;;5073866;28;19989;-62
2023/04/23 08:53:37;;;;;;;;;;;34.70;30.40;;;;;;5073876;28;19985;-62
2023/04/23 08:56:05;;;;;;;;;;;34.30;28.80;;;;;;5073692;28;19992;-62
2023/04/23 08:58:30;;;;;;;;;;;34.50;30.90;;;;;;5073590;28;19996;-62
2023/04/23 09:00:57;;;;;;;;;;;34.50;28.50;;;;;;5073609;28;19986;-62
2023/04/23 09:03:24;;;;;;;;;;;34.50;30.80;;;;;;5073446;28;19993;-62
2023/04/23 09:05:51;;;;;;;;;;;34.60;30.00;;;;;;5073682;28;19984;-62
2023/04/23 09:08:19;;;;;;;;;;;34.60;29.30;;;;;;5073653;28;20437;-62
2023/04/23 09:10:45;;;;;;;;;;;34.80;29.70;;;;;;5073553;28;19996;-62
2023/04/23 09:13:11;;;;;;;;;;;34.90;28.10;;;;;;5073850;28;20068;-62
2023/04/23 09:15:42;;;;;;;;;;;34.70;27.30;;;;;;5073330;28;20332;-62
2023/04/23 09:18:08;;;;;;;;;;;34.80;26.90;;;;;;5073806;28;19989;-62
2023/04/23 09:20:33;;;;;;;;;;;34.80;26.70;;;;;;5073457;28;20401;-62
2023/04/23 09:22:59;;;;;;;;;;;34.80;26.70;;;;;;5073715;28;20116;-61
2023/04/23 09:25:24;;;;;;;;;;;34.70;26.90;;;;;;5076216;28;19997;-62
2023/04/23 09:27:51;;;;;;;;;;;34.10;27.40;;;;;;5077563;28;20009;-62
2023/04/23 09:30:18;;;;;;;;;;;33.40;28.10;;;;;;5077447;28;20095;-61
2023/04/23 09:32:48;;;;;;;;;;;32.90;28.20;;;;;;5077370;28;20055;-62
2023/04/23 09:35:14;;;;;;;;;;;33.50;28.00;;;;;;5077226;28;20522;-61
2023/04/23 09:37:41;;;;;;;;;;;33.60;28.20;;;;;;5077060;28;19989;-62
2023/04/23 09:40:07;;;;;;;;;;;33.80;27.50;;;;;;5077161;28;20047;-61
2023/04/23 09:42:33;;;;;;;;;;;34.00;27.40;;;;;;5077249;28;20032;-62
2023/04/23 09:45:03;;;;;;;;;;;33.50;26.90;;;;;;5076832;28;19991;-61
2023/04/23 09:47:33;;;;;;;;;;;32.80;27.70;;;;;;5077270;28;20123;-61
2023/04/23 09:49:59;;;;;;;;;;;33.00;28.00;;;;;;5077122;28;19992;-61
2023/04/23 09:52:25;;;;;;;;;;;33.00;28.10;;;;;;5076898;28;20442;-61
2023/04/23 09:54:51;;;;;;;;;;;32.80;31.60;;;;;;5076920;28;19989;-61
2023/04/23 09:57:17;;;;;;;;;;;32.80;29.30;;;;;;5077214;28;19989;-61
2023/04/23 09:59:43;;;;;;;;;;;33.00;29.10;;;;;;5076602;28;20403;-62
2023/04/23 10:02:09;;;;;;;;;;;33.00;28.00;;;;;;5077082;28;20004;-61
2023/04/23 10:04:35;;;;;;;;;;;33.00;27.50;;;;;;5077020;28;19994;-61
2023/04/23 10:07:02;;;;;;;;;;;33.00;27.60;;;;;;5076660;28;20143;-61
2023/04/23 10:09:28;;;;;;;;;;;33.30;28.50;;;;;;5076568;28;20057;-61
2023/04/23 10:11:55;;;;;;;;;;;33.30;28.50;;;;;;5076833;28;19996;-61
2023/04/23 10:14:21;;;;;;;;;;;33.00;29.10;;;;;;5076274;28;20440;-61
2023/04/23 10:16:49;;;;;;;;;;;32.80;28.90;;;;;;5076776;28;20032;-61
2023/04/23 10:19:18;;;;;;;;;;;33.20;28.30;;;;;;5076543;28;19985;-62
2023/04/23 10:21:45;;;;;;;;;;;33.00;31.70;;;;;;5076372;28;20034;-62
2023/04/23 10:24:12;;;;;;;;;;;33.00;30.00;;;;;;5076393;28;19986;-61
2023/04/23 10:26:40;;;;;;;;;;;33.10;29.90;;;;;;5076644;28;19989;-61
2023/04/23 10:29:08;;;;;;;;;;;33.20;31.70;;;;;;5075928;28;20010;-61
2023/04/23 10:31:35;;;;;;;;;;;33.20;31.70;;;;;;5076389;28;19986;-61
2023/04/23 10:34:04;;;;;;;;;;;33.30;30.20;;;;;;5076354;28;19990;-61
2023/04/23 10:36:32;;;;;;;;;;;33.00;29.90;;;;;;5074722;28;20491;-61
2023/04/23 10:39:02;;;;;;;;;;;32.80;30.30;;;;;;5075975;28;20119;-61
2023/04/23 10:41:32;;;;;;;;;;;32.70;31.40;;;;;;5076113;28;20011;-61
2023/04/23 10:43:58;;;;;;;;;;;32.50;29.20;;;;;;5075754;28;19985;-61
2023/04/23 10:46:27;;;;;;;;;;;32.50;30.50;;;;;;5076086;28;20031;-61
2023/04/23 10:49:06;;;;;;;;;;;32.80;29.90;;;;;;5075934;28;20016;-61
2023/04/23 10:51:32;;;;;;;;;;;33.20;31.80;;;;;;5075918;28;19993;-61
2023/04/23 10:53:57;;;;;;;;;;;33.00;30.30;;;;;;5075987;28;20404;-61
2023/04/23 10:56:26;;;;;;;;;;;32.90;28.90;;;;;;5075741;28;19993;-61
2023/04/23 10:58:52;;;;;;;;;;;33.30;27.60;;;;;;5076089;28;19988;-61
2023/04/23 11:01:18;;;;;;;;;;;33.60;28.00;;;;;;5075625;28;20499;-61
2023/04/23 11:03:43;;;;;;;;;;;33.60;29.30;;;;;;5075872;28;20367;-61
2023/04/23 11:06:11;;;;;;;;;;;33.80;27.70;;;;;;5075598;28;19993;-61
2023/04/23 11:08:50;;;;;;;;;;;33.50;29.80;;;;;;5075548;28;20016;-61
2023/04/23 11:11:15;;;;;;;;;;;33.40;31.50;;;;;;5075434;28;20432;-61
2023/04/23 11:13:50;;;;;;;;;;;33.40;31.30;;;;;;5075320;28;19993;-61
2023/04/23 11:16:20;;;;;;;;;;;33.50;32.70;;;;;;5075739;28;20351;-61
2023/04/23 11:19:03;;;;;;;;;;;33.60;30.50;;;;;;5076018;28;20063;-61
2023/04/23 11:21:47;;;;;;;;;;;33.60;29.10;;;;;;5075622;28;20347;-61
2023/04/23 11:24:14;;;;;;;;;;;33.50;30.70;;;;;;5075551;28;20039;-61
2023/04/23 11:26:41;;;;;;;;;;;33.60;31.10;;;;;;5075304;28;19989;-61
2023/04/23 11:29:07;;;;;;;;;;;33.40;27.90;;;;;;5075033;28;20382;-61
2023/04/23 11:31:33;;;;;;;;;;;33.60;27.20;;;;;;5075262;28;19990;-61
2023/04/23 11:33:58;;;;;;;;;;;33.20;27.10;;;;;;5075325;28;19989;-61
2023/04/23 11:36:26;;;;;;;;;;;33.00;26.90;;;;;;5074819;28;20341;-61
2023/04/23 11:38:55;;;;;;;;;;;32.70;28.10;;;;;;5074944;28;20129;-61
2023/04/23 11:41:23;;;;;;;;;;;33.10;29.90;;;;;;5074864;28;19989;-61
2023/04/23 11:43:49;;;;;;;;;;;33.40;27.90;;;;;;5074797;28;20359;-61
2023/04/23 11:46:14;;;;;;;;;;;33.40;28.80;;;;;;5075044;28;19989;-61
2023/04/23 11:48:40;;;;;;;;;;;33.30;30.10;;;;;;5074366;28;20111;-61
2023/04/23 11:51:05;;;;;;;;;;;33.00;30.00;;;;;;5074611;28;19992;-61
2023/04/23 11:53:31;;;;;;;;;;;33.30;31.50;;;;;;5074833;28;20021;-61
2023/04/23 11:55:56;;;;;;;;;;;33.20;29.00;;;;;;5074471;28;19985;-61
2023/04/23 11:58:22;;;;;;;;;;;33.10;30.10;;;;;;5074607;28;20016;-61
2023/04/23 12:00:48;;;;;;;;;;;33.30;30.20;;;;;;5074438;28;20451;-61
2023/04/23 12:03:15;;;;;;;;;;;33.30;34.20;;;;;;5074549;28;19985;-61
2023/04/23 12:05:42;;;;;;;;;;;33.20;28.60;;;;;;5074474;28;19985;-61
2023/04/23 12:08:13;;;;;;;;;;;33.40;28.60;;;;;;5074303;28;20059;-61
2023/04/23 12:10:52;;;;;;;;;;;33.50;30.40;;;;;;5074458;28;20068;-61
2023/04/23 12:13:22;;;;;;;;;;;33.70;31.20;;;;;;5074222;28;19985;-61
2023/04/23 12:15:49;;;;;;;;;;;33.90;31.30;;;;;;5074565;28;19989;-61
2023/04/23 12:18:15;;;;;;;;;;;34.10;30.00;;;;;;5074212;28;19992;-61
2023/04/23 12:20:40;;;;;;;;;;;34.10;29.50;;;;;;5074413;28;19994;-61
2023/04/23 12:23:07;;;;;;;;;;;34.20;31.20;;;;;;5074249;28;20073;-61
2023/04/23 12:25:32;;;;;;;;;;;34.20;30.80;;;;;;5073986;28;19990;-61
2023/04/23 12:27:59;;;;;;;;;;;34.00;31.60;;;;;;5073936;28;20107;-61
2023/04/23 12:30:28;;;;;;;;;;;33.80;29.60;;;;;;5073971;28;19996;-61
2023/04/23 12:32:59;;;;;;;;;;;33.70;30.20;;;;;;5073954;28;19989;-61
2023/04/23 12:35:41;;;;;;;;;;;33.90;30.90;;;;;;5073769;28;20478;-61
2023/04/23 12:38:07;;;;;;;;;;;34.00;30.20;;;;;;5073821;28;20027;-61
2023/04/23 12:40:33;;;;;;;;;;;34.20;30.60;;;;;;5073961;28;20068;-61
2023/04/23 12:42:58;;;;;;;;;;;34.00;31.80;;;;;;5073943;28;19989;-61
2023/04/23 12:45:24;;;;;;;;;;;34.10;30.90;;;;;;5073938;28;19989;-61
2023/04/23 12:47:50;;;;;;;;;;;34.20;31.50;;;;;;5073876;28;20019;-61
2023/04/23 12:50:16;;;;;;;;;;;34.30;29.20;;;;;;5073617;28;19989;-61
2023/04/23 12:52:41;;;;;;;;;;;34.30;30.80;;;;;;5073786;28;19986;-61
2023/04/23 12:55:07;;;;;;;;;;;34.20;32.40;;;;;;5073607;28;20450;-61
2023/04/23 12:57:33;;;;;;;;;;;34.00;29.60;;;;;;5073628;28;19989;-61
2023/04/23 12:59:58;;;;;;;;;;;33.90;31.10;;;;;;5072993;28;19985;-61
2023/04/23 13:02:24;;;;;;;;;;;34.10;30.00;;;;;;5073692;28;19985;-61
2023/04/23 13:04:50;;;;;;;;;;;34.10;28.30;;;;;;5073554;28;20359;-61
2023/04/23 13:07:16;;;;;;;;;;;33.60;29.30;;;;;;5073570;28;19989;-61
2023/04/23 13:09:41;;;;;;;;;;;33.70;29.40;;;;;;5073352;28;20009;-61
2023/04/23 13:12:07;;;;;;;;;;;33.90;30.00;;;;;;5073520;28;19986;-61
2023/04/23 13:14:32;;;;;;;;;;;34.10;32.70;;;;;;5073811;28;19998;-61
2023/04/23 13:16:58;;;;;;;;;;;34.00;32.50;;;;;;5073493;28;19992;-61
2023/04/23 13:19:24;;;;;;;;;;;33.90;30.40;;;;;;5073559;28;20439;-61
2023/04/23 13:21:49;;;;;;;;;;;33.90;32.20;;;;;;5073465;28;19986;-61
2023/04/23 13:24:15;;;;;;;;;;;34.00;31.50;;;;;;5073359;28;20039;-61
2023/04/23 13:26:41;;;;;;;;;;;34.00;32.90;;;;;;5073481;28;19992;-61
2023/04/23 13:29:06;;;;;;;;;;;33.80;32.20;;;;;;5073198;28;20517;-61
2023/04/23 13:31:32;;;;;;;;;;;33.30;29.10;;;;;;5073496;28;19996;-61
2023/04/23 13:33:57;;;;;;;;;;;33.30;29.60;;;;;;5073356;28;19985;-61
2023/04/23 13:36:23;;;;;;;;;;;33.30;30.80;;;;;;5073215;28;20005;-61
2023/04/23 13:38:49;;;;;;;;;;;33.20;31.50;;;;;;5073073;28;20032;-61
2023/04/23 13:41:14;;;;;;;;;;;33.20;30.80;;;;;;5073210;28;20102;-61
2023/04/23 13:43:40;;;;;;;;;;;33.30;31.80;;;;;;5073331;28;19986;-61
2023/04/23 13:46:06;;;;;;;;;;;33.00;28.40;;;;;;5073498;28;19993;-61
2023/04/23 13:48:32;;;;;;;;;;;32.90;28.70;;;;;;5073216;28;20009;-61
2023/04/23 13:51:00;;;;;;;;;;;32.80;29.60;;;;;;5073530;28;20351;-61
2023/04/23 13:53:26;;;;;;;;;;;32.90;31.80;;;;;;5072880;28;19992;-61
2023/04/23 13:55:52;;;;;;;;;;;33.00;29.70;;;;;;5073273;28;19985;-61
2023/04/23 13:58:18;;;;;;;;;;;33.00;29.40;;;;;;5073135;28;19989;-61
2023/04/23 14:00:43;;;;;;;;;;;32.80;30.30;;;;;;5072974;28;20063;-61
2023/04/23 14:03:09;;;;;;;;;;;32.80;31.20;;;;;;5073055;28;20027;-61
2023/04/23 14:05:35;;;;;;;;;;;32.80;31.10;;;;;;5072864;28;19986;-61
2023/04/23 14:08:01;;;;;;;;;;;33.00;32.00;;;;;;5072940;28;20016;-61
2023/04/23 14:10:26;;;;;;;;;;;32.60;29.80;;;;;;5073846;28;19989;-61
2023/04/23 14:12:53;;;;;;;;;;;32.40;30.60;;;;;;5076673;28;19993;-61